EZY764 EGPH-EGKK
Flight info
| Callsign | EZY764 |
|---|---|
| Flight time | 0h 59m |
| Altitude | 33000 |
| Route | GOSAM P600 FENIK L612 NAVSO DCT KEPAD L151 DISIT |
| Aircraft | A320/M-SDE2E3FGHIJ1RWXYZ/LB1 |
Departure
| Time | 2026-04-26 11:18 |
|---|---|
| Airport | Edinburgh Airport (EGPH) |
Arrival
| Time | 2026-04-26 12:17 |
|---|---|
| Airport | London Gatwick Airport (EGKK) |
| Time | Latitude | Longitude | Altitude | Speed | Heading |
|---|---|---|---|---|---|
| 2026-04-26 10:56 | 55.94854 | -3.36604 | 116 ft | 0 kts | 145° |
| 2026-04-26 11:10 | 55.94855 | -3.36605 | 116 ft | 2 kts | 145° |
| 2026-04-26 11:10 | 55.94869 | -3.36623 | 112 ft | 2 kts | 145° |
| 2026-04-26 11:10 | 55.94883 | -3.36640 | 116 ft | 2 kts | 145° |
| 2026-04-26 11:11 | 55.94897 | -3.36658 | 112 ft | 3 kts | 134° |
| 2026-04-26 11:11 | 55.94907 | -3.36685 | 113 ft | 3 kts | 96° |
| 2026-04-26 11:11 | 55.94906 | -3.36714 | 113 ft | 0 kts | 60° |
| 2026-04-26 11:14 | 55.94921 | -3.36666 | 116 ft | 12 kts | 60° |
| 2026-04-26 11:14 | 55.94960 | -3.36547 | 116 ft | 21 kts | 60° |
| 2026-04-26 11:15 | 55.95069 | -3.36400 | 116 ft | 12 kts | 356° |
| 2026-04-26 11:15 | 55.95129 | -3.36302 | 113 ft | 13 kts | 59° |
| 2026-04-26 11:15 | 55.95183 | -3.36136 | 113 ft | 18 kts | 59° |
| 2026-04-26 11:15 | 55.95257 | -3.35914 | 114 ft | 23 kts | 58° |
| 2026-04-26 11:16 | 55.95341 | -3.35662 | 114 ft | 24 kts | 57° |
| 2026-04-26 11:16 | 55.95425 | -3.35418 | 114 ft | 18 kts | 46° |
| 2026-04-26 11:16 | 55.95492 | -3.35432 | 116 ft | 7 kts | 324° |
| 2026-04-26 11:16 | 55.95526 | -3.35472 | 113 ft | 6 kts | 318° |
| 2026-04-26 11:17 | 55.95561 | -3.35536 | 113 ft | 7 kts | 295° |
| 2026-04-26 11:17 | 55.95552 | -3.35620 | 111 ft | 11 kts | 239° |
| 2026-04-26 11:17 | 55.95419 | -3.36016 | 111 ft | 75 kts | 238° |
| 2026-04-26 11:17 | 55.95016 | -3.37186 | 112 ft | 141 kts | 240° |
| 2026-04-26 11:18 | 55.94456 | -3.38850 | 482 ft | 164 kts | 239° |
| 2026-04-26 11:18 | 55.93842 | -3.40584 | 1290 ft | 167 kts | 236° |
| 2026-04-26 11:18 | 55.93200 | -3.42298 | 2043 ft | 165 kts | 234° |
| 2026-04-26 11:18 | 55.92547 | -3.43959 | 2782 ft | 161 kts | 233° |
| 2026-04-26 11:19 | 55.91911 | -3.45634 | 3376 ft | 167 kts | 239° |
| 2026-04-26 11:19 | 55.91299 | -3.47490 | 3793 ft | 182 kts | 240° |
| 2026-04-26 11:19 | 55.90643 | -3.49533 | 4197 ft | 197 kts | 244° |
| 2026-04-26 11:19 | 55.90270 | -3.51983 | 4611 ft | 215 kts | 263° |
| 2026-04-26 11:20 | 55.90041 | -3.54731 | 5160 ft | 233 kts | 261° |
| 2026-04-26 11:20 | 55.89864 | -3.56653 | 5523 ft | 244 kts | 261° |
| 2026-04-26 11:20 | 55.89459 | -3.60835 | 5971 ft | 261 kts | 260° |
| 2026-04-26 11:20 | 55.88866 | -3.63864 | 6464 ft | 263 kts | 239° |
| 2026-04-26 11:21 | 55.87620 | -3.66250 | 7330 ft | 269 kts | 216° |
| 2026-04-26 11:21 | 55.85876 | -3.67492 | 8194 ft | 275 kts | 191° |
| 2026-04-26 11:21 | 55.83955 | -3.67958 | 9010 ft | 281 kts | 189° |
| 2026-04-26 11:21 | 55.81995 | -3.68380 | 9840 ft | 285 kts | 189° |
| 2026-04-26 11:22 | 55.80007 | -3.68795 | 10612 ft | 292 kts | 189° |
| 2026-04-26 11:22 | 55.77931 | -3.69234 | 11052 ft | 309 kts | 189° |
| 2026-04-26 11:22 | 55.75739 | -3.69709 | 11466 ft | 326 kts | 189° |
| 2026-04-26 11:22 | 55.73457 | -3.70211 | 12063 ft | 334 kts | 189° |
| 2026-04-26 11:23 | 55.71136 | -3.70723 | 12811 ft | 338 kts | 189° |
| 2026-04-26 11:23 | 55.68782 | -3.71236 | 13565 ft | 342 kts | 188° |
| 2026-04-26 11:23 | 55.66402 | -3.71751 | 14285 ft | 346 kts | 188° |
| 2026-04-26 11:23 | 55.64003 | -3.72273 | 14946 ft | 349 kts | 188° |
| 2026-04-26 11:24 | 55.61583 | -3.72803 | 15618 ft | 352 kts | 188° |
| 2026-04-26 11:24 | 55.59142 | -3.73340 | 16301 ft | 354 kts | 188° |
| 2026-04-26 11:24 | 55.56685 | -3.73883 | 16980 ft | 357 kts | 188° |
| 2026-04-26 11:24 | 55.54246 | -3.74420 | 17641 ft | 360 kts | 188° |
| 2026-04-26 11:25 | 55.51754 | -3.74965 | 18296 ft | 363 kts | 188° |
| 2026-04-26 11:25 | 55.49238 | -3.75510 | 18905 ft | 366 kts | 188° |
| 2026-04-26 11:25 | 55.46702 | -3.76058 | 19462 ft | 368 kts | 188° |
| 2026-04-26 11:25 | 55.44148 | -3.76610 | 20008 ft | 371 kts | 188° |
| 2026-04-26 11:26 | 55.41576 | -3.77170 | 20561 ft | 374 kts | 188° |
| 2026-04-26 11:26 | 55.38985 | -3.77734 | 21089 ft | 377 kts | 188° |
| 2026-04-26 11:26 | 55.36371 | -3.78305 | 21633 ft | 380 kts | 188° |
| 2026-04-26 11:26 | 55.33738 | -3.78879 | 22133 ft | 383 kts | 188° |
| 2026-04-26 11:27 | 55.31084 | -3.79454 | 22633 ft | 386 kts | 188° |
| 2026-04-26 11:27 | 55.28413 | -3.80032 | 23141 ft | 389 kts | 188° |
| 2026-04-26 11:27 | 55.25715 | -3.80609 | 23644 ft | 392 kts | 187° |
| 2026-04-26 11:27 | 55.22982 | -3.80774 | 24085 ft | 395 kts | 177° |
| 2026-04-26 11:28 | 55.20251 | -3.80067 | 24500 ft | 399 kts | 167° |
| 2026-04-26 11:28 | 55.17594 | -3.78606 | 24906 ft | 402 kts | 162° |
| 2026-04-26 11:28 | 55.15835 | -3.77564 | 25168 ft | 404 kts | 163° |
| 2026-04-26 11:28 | 55.13164 | -3.75987 | 25570 ft | 406 kts | 163° |
| 2026-04-26 11:29 | 55.10482 | -3.74413 | 25963 ft | 408 kts | 163° |
| 2026-04-26 11:29 | 55.07786 | -3.72842 | 26373 ft | 410 kts | 163° |
| 2026-04-26 11:29 | 55.05077 | -3.71267 | 26754 ft | 412 kts | 163° |
| 2026-04-26 11:29 | 55.02344 | -3.69680 | 27151 ft | 414 kts | 163° |
| 2026-04-26 11:30 | 54.99605 | -3.68094 | 27533 ft | 416 kts | 163° |
| 2026-04-26 11:30 | 54.96854 | -3.66502 | 27916 ft | 418 kts | 163° |
| 2026-04-26 11:30 | 54.94076 | -3.64890 | 28282 ft | 421 kts | 163° |
| 2026-04-26 11:30 | 54.91295 | -3.63275 | 28654 ft | 423 kts | 164° |
| 2026-04-26 11:31 | 54.88498 | -3.61655 | 29031 ft | 425 kts | 164° |
| 2026-04-26 11:31 | 54.85688 | -3.60030 | 29390 ft | 427 kts | 164° |
| 2026-04-26 11:31 | 54.82870 | -3.58405 | 29737 ft | 429 kts | 164° |
| 2026-04-26 11:31 | 54.80023 | -3.56767 | 30082 ft | 431 kts | 164° |
| 2026-04-26 11:32 | 54.77170 | -3.55131 | 30406 ft | 433 kts | 164° |
| 2026-04-26 11:32 | 54.74307 | -3.53491 | 30677 ft | 435 kts | 164° |
| 2026-04-26 11:32 | 54.71455 | -3.51857 | 30937 ft | 437 kts | 164° |
| 2026-04-26 11:32 | 54.68558 | -3.50198 | 31188 ft | 439 kts | 165° |
| 2026-04-26 11:33 | 54.65616 | -3.48519 | 31463 ft | 441 kts | 165° |
| 2026-04-26 11:33 | 54.62693 | -3.46854 | 31730 ft | 443 kts | 165° |
| 2026-04-26 11:33 | 54.59807 | -3.45209 | 32080 ft | 442 kts | 165° |
| 2026-04-26 11:33 | 54.56894 | -3.43549 | 32469 ft | 441 kts | 165° |
| 2026-04-26 11:34 | 54.53983 | -3.41893 | 32837 ft | 440 kts | 165° |
| 2026-04-26 11:34 | 54.51082 | -3.40248 | 33189 ft | 440 kts | 166° |
| 2026-04-26 11:34 | 54.48177 | -3.38602 | 33297 ft | 435 kts | 165° |
| 2026-04-26 11:34 | 54.45353 | -3.36999 | 33300 ft | 421 kts | 166° |
| 2026-04-26 11:35 | 54.39797 | -3.33869 | 33296 ft | 421 kts | 166° |
| 2026-04-26 11:35 | 54.34232 | -3.30735 | 33295 ft | 421 kts | 166° |
| 2026-04-26 11:36 | 54.28655 | -3.27609 | 33301 ft | 422 kts | 166° |
| 2026-04-26 11:36 | 54.23077 | -3.24493 | 33301 ft | 422 kts | 166° |
| 2026-04-26 11:37 | 54.17499 | -3.21383 | 33295 ft | 423 kts | 166° |
| 2026-04-26 11:37 | 54.11901 | -3.18270 | 33301 ft | 423 kts | 166° |
| 2026-04-26 11:38 | 54.06306 | -3.15168 | 33289 ft | 423 kts | 166° |
| 2026-04-26 11:38 | 54.00702 | -3.12065 | 33288 ft | 424 kts | 166° |
| 2026-04-26 11:39 | 53.95092 | -3.08967 | 33288 ft | 424 kts | 166° |
| 2026-04-26 11:39 | 53.89479 | -3.05885 | 33289 ft | 424 kts | 166° |
| 2026-04-26 11:40 | 53.83856 | -3.02802 | 33289 ft | 424 kts | 166° |
| 2026-04-26 11:40 | 53.78234 | -2.99725 | 33290 ft | 424 kts | 166° |
| 2026-04-26 11:42 | 53.55773 | -2.87536 | 33299 ft | 425 kts | 167° |
| 2026-04-26 11:43 | 53.50139 | -2.84508 | 33302 ft | 425 kts | 167° |
| 2026-04-26 11:43 | 53.44508 | -2.81482 | 33294 ft | 425 kts | 167° |
| 2026-04-26 11:44 | 53.38870 | -2.78450 | 33301 ft | 425 kts | 167° |
| 2026-04-26 11:44 | 53.33240 | -2.75441 | 33302 ft | 426 kts | 166° |
| 2026-04-26 11:45 | 53.27590 | -2.72428 | 33307 ft | 426 kts | 167° |
| 2026-04-26 11:45 | 53.21941 | -2.69436 | 33295 ft | 426 kts | 167° |
| 2026-04-26 11:46 | 53.16286 | -2.66442 | 33300 ft | 426 kts | 167° |
| 2026-04-26 11:46 | 53.10643 | -2.63451 | 33308 ft | 427 kts | 166° |
| 2026-04-26 11:47 | 53.04984 | -2.60454 | 33306 ft | 427 kts | 167° |
| 2026-04-26 11:47 | 52.99322 | -2.57485 | 33304 ft | 426 kts | 166° |
| 2026-04-26 11:48 | 52.93667 | -2.54529 | 33295 ft | 426 kts | 166° |
| 2026-04-26 11:48 | 52.88005 | -2.51569 | 33308 ft | 426 kts | 166° |
| 2026-04-26 11:49 | 52.82359 | -2.48551 | 33289 ft | 428 kts | 162° |
| 2026-04-26 11:49 | 52.79678 | -2.46434 | 33043 ft | 425 kts | 153° |
| 2026-04-26 11:49 | 52.77263 | -2.43804 | 32779 ft | 420 kts | 149° |
| 2026-04-26 11:50 | 52.74848 | -2.41101 | 32534 ft | 418 kts | 149° |
| 2026-04-26 11:50 | 52.72441 | -2.38431 | 32278 ft | 416 kts | 150° |
| 2026-04-26 11:50 | 52.70040 | -2.35788 | 32021 ft | 414 kts | 150° |
| 2026-04-26 11:50 | 52.67640 | -2.33160 | 31764 ft | 412 kts | 150° |
| 2026-04-26 11:51 | 52.65258 | -2.30553 | 31493 ft | 408 kts | 150° |
| 2026-04-26 11:51 | 52.62906 | -2.27977 | 31056 ft | 405 kts | 150° |
| 2026-04-26 11:51 | 52.60570 | -2.25421 | 30597 ft | 403 kts | 150° |
| 2026-04-26 11:51 | 52.58243 | -2.22874 | 30105 ft | 400 kts | 150° |
| 2026-04-26 11:52 | 52.55941 | -2.20354 | 29669 ft | 395 kts | 150° |
| 2026-04-26 11:52 | 52.54436 | -2.18707 | 29392 ft | 392 kts | 150° |
| 2026-04-26 11:52 | 52.51419 | -2.15412 | 28816 ft | 386 kts | 150° |
| 2026-04-26 11:52 | 52.49193 | -2.12990 | 28402 ft | 382 kts | 150° |
| 2026-04-26 11:53 | 52.46991 | -2.10600 | 27983 ft | 378 kts | 150° |
| 2026-04-26 11:53 | 52.44802 | -2.08230 | 27569 ft | 375 kts | 150° |
| 2026-04-26 11:53 | 52.42634 | -2.05883 | 27165 ft | 371 kts | 150° |
| 2026-04-26 11:54 | 52.38347 | -2.01246 | 26315 ft | 367 kts | 149° |
| 2026-04-26 11:54 | 52.36230 | -1.98953 | 25876 ft | 364 kts | 149° |
| 2026-04-26 11:54 | 52.34120 | -1.96675 | 25452 ft | 362 kts | 149° |
| 2026-04-26 11:54 | 52.32016 | -1.94409 | 25006 ft | 362 kts | 149° |
| 2026-04-26 11:55 | 52.29945 | -1.92182 | 24560 ft | 361 kts | 149° |
| 2026-04-26 11:55 | 52.27856 | -1.89935 | 24108 ft | 361 kts | 149° |
| 2026-04-26 11:55 | 52.25753 | -1.87678 | 23598 ft | 361 kts | 149° |
| 2026-04-26 11:55 | 52.23670 | -1.85437 | 23142 ft | 358 kts | 149° |
| 2026-04-26 11:56 | 52.21592 | -1.83199 | 22699 ft | 357 kts | 149° |
| 2026-04-26 11:56 | 52.19523 | -1.80975 | 22255 ft | 355 kts | 149° |
| 2026-04-26 11:56 | 52.17468 | -1.78774 | 21863 ft | 353 kts | 149° |
| 2026-04-26 11:56 | 52.15404 | -1.76575 | 21219 ft | 358 kts | 149° |
| 2026-04-26 11:57 | 52.13304 | -1.74348 | 20557 ft | 361 kts | 149° |
| 2026-04-26 11:57 | 52.11229 | -1.72141 | 20117 ft | 349 kts | 148° |
| 2026-04-26 11:57 | 52.09247 | -1.70024 | 19818 ft | 335 kts | 149° |
| 2026-04-26 11:57 | 52.07295 | -1.67946 | 19579 ft | 334 kts | 149° |
| 2026-04-26 11:58 | 52.05360 | -1.65893 | 19337 ft | 332 kts | 148° |
| 2026-04-26 11:58 | 52.03428 | -1.63842 | 19107 ft | 331 kts | 148° |
| 2026-04-26 11:58 | 52.01509 | -1.61803 | 18865 ft | 329 kts | 148° |
| 2026-04-26 11:58 | 51.99595 | -1.59773 | 18615 ft | 328 kts | 149° |
| 2026-04-26 11:59 | 51.97689 | -1.57755 | 18353 ft | 326 kts | 148° |
| 2026-04-26 11:59 | 51.95792 | -1.55751 | 18076 ft | 325 kts | 148° |
| 2026-04-26 11:59 | 51.93899 | -1.53757 | 17811 ft | 324 kts | 149° |
| 2026-04-26 11:59 | 51.92013 | -1.51766 | 17544 ft | 323 kts | 149° |
| 2026-04-26 12:00 | 51.90138 | -1.49788 | 17285 ft | 322 kts | 149° |
| 2026-04-26 12:00 | 51.88262 | -1.47812 | 17025 ft | 321 kts | 149° |
| 2026-04-26 12:00 | 51.86397 | -1.45847 | 16758 ft | 320 kts | 149° |
| 2026-04-26 12:00 | 51.84539 | -1.43891 | 16504 ft | 318 kts | 149° |
| 2026-04-26 12:01 | 51.82680 | -1.41940 | 16248 ft | 318 kts | 149° |
| 2026-04-26 12:01 | 51.80830 | -1.39999 | 15988 ft | 317 kts | 149° |
| 2026-04-26 12:01 | 51.78981 | -1.38062 | 15744 ft | 316 kts | 149° |
| 2026-04-26 12:01 | 51.77141 | -1.36141 | 15501 ft | 315 kts | 149° |
| 2026-04-26 12:02 | 51.75308 | -1.34228 | 15251 ft | 314 kts | 149° |
| 2026-04-26 12:02 | 51.74092 | -1.32956 | 15074 ft | 313 kts | 149° |
| 2026-04-26 12:02 | 51.71649 | -1.30403 | 14745 ft | 312 kts | 149° |
| 2026-04-26 12:02 | 51.69827 | -1.28506 | 14504 ft | 312 kts | 149° |
| 2026-04-26 12:03 | 51.68008 | -1.26613 | 14236 ft | 311 kts | 149° |
| 2026-04-26 12:03 | 51.66195 | -1.24721 | 13991 ft | 311 kts | 149° |
| 2026-04-26 12:03 | 51.64383 | -1.22840 | 13729 ft | 309 kts | 149° |
| 2026-04-26 12:03 | 51.62579 | -1.20967 | 13449 ft | 307 kts | 149° |
| 2026-04-26 12:04 | 51.60813 | -1.19134 | 13195 ft | 306 kts | 149° |
| 2026-04-26 12:04 | 51.59003 | -1.17265 | 12928 ft | 304 kts | 149° |
| 2026-04-26 12:04 | 51.57250 | -1.15458 | 12673 ft | 303 kts | 149° |
| 2026-04-26 12:04 | 51.55476 | -1.13627 | 12413 ft | 302 kts | 149° |
| 2026-04-26 12:05 | 51.53689 | -1.11781 | 12146 ft | 301 kts | 149° |
| 2026-04-26 12:05 | 51.51956 | -1.09992 | 11909 ft | 300 kts | 148° |
| 2026-04-26 12:05 | 51.50208 | -1.08187 | 11640 ft | 297 kts | 149° |
| 2026-04-26 12:05 | 51.48446 | -1.06368 | 11393 ft | 297 kts | 149° |
| 2026-04-26 12:06 | 51.46738 | -1.04604 | 11152 ft | 295 kts | 149° |
| 2026-04-26 12:06 | 51.44992 | -1.02804 | 10901 ft | 294 kts | 148° |
| 2026-04-26 12:06 | 51.43300 | -1.01067 | 10659 ft | 292 kts | 148° |
| 2026-04-26 12:06 | 51.41591 | -0.99316 | 10412 ft | 291 kts | 149° |
| 2026-04-26 12:07 | 51.39890 | -0.97572 | 10179 ft | 288 kts | 148° |
| 2026-04-26 12:07 | 51.38206 | -0.95846 | 9905 ft | 287 kts | 148° |
| 2026-04-26 12:07 | 51.36526 | -0.94124 | 9604 ft | 287 kts | 148° |
| 2026-04-26 12:07 | 51.34849 | -0.92402 | 9276 ft | 285 kts | 148° |
| 2026-04-26 12:08 | 51.33238 | -0.90593 | 8990 ft | 283 kts | 137° |
| 2026-04-26 12:08 | 51.31975 | -0.88194 | 8674 ft | 282 kts | 128° |
| 2026-04-26 12:08 | 51.30772 | -0.85717 | 8377 ft | 281 kts | 129° |
| 2026-04-26 12:08 | 51.29578 | -0.83261 | 8084 ft | 279 kts | 129° |
| 2026-04-26 12:09 | 51.28410 | -0.80863 | 7770 ft | 267 kts | 128° |
| 2026-04-26 12:09 | 51.27291 | -0.78563 | 7476 ft | 259 kts | 128° |
| 2026-04-26 12:09 | 51.26188 | -0.76296 | 7176 ft | 258 kts | 128° |
| 2026-04-26 12:09 | 51.25087 | -0.74040 | 6886 ft | 256 kts | 128° |
| 2026-04-26 12:10 | 51.23998 | -0.71803 | 6580 ft | 255 kts | 128° |
| 2026-04-26 12:10 | 51.22914 | -0.69570 | 6275 ft | 254 kts | 128° |
| 2026-04-26 12:10 | 51.21842 | -0.67364 | 5963 ft | 249 kts | 128° |
| 2026-04-26 12:10 | 51.20793 | -0.65211 | 5657 ft | 242 kts | 128° |
| 2026-04-26 12:11 | 51.20266 | -0.64128 | 5493 ft | 237 kts | 130° |
| 2026-04-26 12:11 | 51.19364 | -0.61972 | 5190 ft | 228 kts | 127° |
| 2026-04-26 12:11 | 51.18420 | -0.60003 | 4879 ft | 220 kts | 128° |
| 2026-04-26 12:11 | 51.17469 | -0.58138 | 4583 ft | 217 kts | 129° |
| 2026-04-26 12:12 | 51.16489 | -0.56227 | 4280 ft | 228 kts | 131° |
| 2026-04-26 12:12 | 51.15479 | -0.54232 | 3975 ft | 232 kts | 128° |
| 2026-04-26 12:12 | 51.14469 | -0.52214 | 3805 ft | 233 kts | 128° |
| 2026-04-26 12:12 | 51.13812 | -0.50898 | 3663 ft | 225 kts | 129° |
| 2026-04-26 12:13 | 51.12543 | -0.48333 | 3189 ft | 222 kts | 129° |
| 2026-04-26 12:13 | 51.11689 | -0.46395 | 3000 ft | 208 kts | 114° |
| 2026-04-26 12:13 | 51.11387 | -0.44230 | 3005 ft | 193 kts | 89° |
| 2026-04-26 12:13 | 51.11605 | -0.42214 | 3031 ft | 183 kts | 79° |
| 2026-04-26 12:14 | 51.11867 | -0.40282 | 2770 ft | 180 kts | 78° |
| 2026-04-26 12:14 | 51.12129 | -0.38356 | 2514 ft | 177 kts | 79° |
| 2026-04-26 12:14 | 51.12392 | -0.36457 | 2257 ft | 176 kts | 78° |
| 2026-04-26 12:14 | 51.12659 | -0.34538 | 2001 ft | 168 kts | 78° |
| 2026-04-26 12:15 | 51.12902 | -0.32806 | 1781 ft | 153 kts | 80° |
| 2026-04-26 12:15 | 51.13123 | -0.31228 | 1604 ft | 144 kts | 81° |
| 2026-04-26 12:15 | 51.13336 | -0.29689 | 1416 ft | 141 kts | 81° |
| 2026-04-26 12:15 | 51.13547 | -0.28173 | 1111 ft | 138 kts | 78° |
| 2026-04-26 12:16 | 51.13762 | -0.26682 | 939 ft | 138 kts | 79° |
| 2026-04-26 12:16 | 51.13968 | -0.25170 | 808 ft | 140 kts | 77° |
| 2026-04-26 12:16 | 51.14170 | -0.23643 | 625 ft | 138 kts | 79° |
| 2026-04-26 12:16 | 51.14374 | -0.22140 | 450 ft | 141 kts | 77° |
| 2026-04-26 12:17 | 51.14591 | -0.20645 | 253 ft | 139 kts | 78° |
| 2026-04-26 12:17 | 51.14792 | -0.19212 | 208 ft | 117 kts | 78° |
| 2026-04-26 12:17 | 51.14928 | -0.18210 | 217 ft | 68 kts | 78° |
| 2026-04-26 12:17 | 51.15006 | -0.17911 | 214 ft | 17 kts | 52° |
| 2026-04-26 12:18 | 51.15065 | -0.17782 | 207 ft | 11 kts | 46° |
| 2026-04-26 12:18 | 51.15098 | -0.17760 | 206 ft | 1 kts | 4° |
| 2026-04-26 12:18 | 51.15099 | -0.17760 | 206 ft | 0 kts | 4° |
| 2026-04-26 12:18 | 51.15100 | -0.17760 | 206 ft | 0 kts | 4° |
| 2026-04-26 12:19 | 51.15105 | -0.17760 | 206 ft | 1 kts | 359° |
| 2026-04-26 12:19 | 51.15116 | -0.17761 | 206 ft | 2 kts | 356° |
| 2026-04-26 12:19 | 51.15157 | -0.17766 | 205 ft | 12 kts | 355° |
| 2026-04-26 12:19 | 51.15217 | -0.17781 | 205 ft | 7 kts | 356° |
| 2026-04-26 12:20 | 51.15256 | -0.17741 | 212 ft | 7 kts | 59° |
| 2026-04-26 12:20 | 51.15274 | -0.17653 | 211 ft | 10 kts | 76° |
| 2026-04-26 12:20 | 51.15292 | -0.17515 | 210 ft | 18 kts | 78° |
| 2026-04-26 12:20 | 51.15352 | -0.17379 | 209 ft | 16 kts | 355° |
| 2026-04-26 12:21 | 51.15464 | -0.17414 | 205 ft | 17 kts | 348° |
| 2026-04-26 12:21 | 51.15586 | -0.17454 | 215 ft | 19 kts | 349° |
| 2026-04-26 12:21 | 51.15697 | -0.17494 | 209 ft | 15 kts | 347° |